createdAt,value
2023-05-09T00:00:43.489Z,1.75
2023-05-09T00:05:47.472Z,1.78
2023-05-09T00:10:50.929Z,1.74
2023-05-09T00:15:57.474Z,1.79
2023-05-09T00:21:02.597Z,1.74
2023-05-09T00:26:06.489Z,1.70
2023-05-09T00:31:11.319Z,1.66
2023-05-09T00:36:14.857Z,1.60
2023-05-09T00:41:18.349Z,1.58
2023-05-09T00:46:24.087Z,1.61
2023-05-09T00:51:28.962Z,1.54
2023-05-09T00:56:32.824Z,1.55
2023-05-09T01:01:38.058Z,1.51
2023-05-09T01:06:50.230Z,1.49
2023-05-09T01:12:07.607Z,1.51
2023-05-09T01:17:18.333Z,1.50
2023-05-09T01:22:25.549Z,1.48
2023-05-09T01:27:44.639Z,1.50
2023-05-09T01:32:52.812Z,1.45
2023-05-09T01:37:56.792Z,1.40
2023-05-09T01:43:05.254Z,1.39
2023-05-09T01:48:12.325Z,1.42
2023-05-09T01:53:16.951Z,1.44
2023-05-09T01:58:21.654Z,1.46
2023-05-09T02:03:27.044Z,1.47
2023-05-09T02:08:31.276Z,1.55
2023-05-09T02:13:34.898Z,1.56
2023-05-09T02:18:39.838Z,1.67
2023-05-09T02:23:43.457Z,1.77
2023-05-09T02:28:48.281Z,1.89
2023-05-09T02:33:54.782Z,2.04
2023-05-09T02:38:58.430Z,2.10
2023-05-09T02:44:01.918Z,2.32
2023-05-09T02:49:06.818Z,2.51
2023-05-09T02:54:10.271Z,2.67
2023-05-09T02:59:13.720Z,2.84
2023-05-09T03:04:19.897Z,3.11
2023-05-09T03:09:23.324Z,3.94
2023-05-09T03:14:26.806Z,4.25
2023-05-09T03:19:31.705Z,4.47
2023-05-09T03:24:35.246Z,4.72
2023-05-09T03:29:38.693Z,5.11
2023-05-09T03:34:43.556Z,5.60
2023-05-09T03:39:47.054Z,6.18
2023-05-09T03:44:50.573Z,7.68
2023-05-09T03:49:55.544Z,13.71
2023-05-09T03:54:58.726Z,18.55
2023-05-09T04:00:02.241Z,20.43
2023-05-09T04:05:10.408Z,22.66
2023-05-09T04:10:13.987Z,24.28
2023-05-09T04:15:17.634Z,26.15
2023-05-09T04:20:22.812Z,27.59
2023-05-09T04:25:26.386Z,29.03
2023-05-09T04:30:29.959Z,29.80
2023-05-09T04:35:35.041Z,31.32
2023-05-09T04:40:38.461Z,32.36
2023-05-09T04:45:41.944Z,33.78
2023-05-09T04:50:48.615Z,34.51
2023-05-09T04:55:55.118Z,34.99
2023-05-09T05:00:58.619Z,35.94
2023-05-09T05:06:03.303Z,37.21
2023-05-09T05:11:06.734Z,37.28
2023-05-09T05:16:10.203Z,38.15
2023-05-09T05:21:16.448Z,38.59
2023-05-09T05:26:19.949Z,38.93
2023-05-09T05:31:23.589Z,39.59
2023-05-09T05:36:28.585Z,40.05
2023-05-09T05:41:32.135Z,40.34
2023-05-09T05:46:35.642Z,40.82
2023-05-09T05:51:40.932Z,41.04
2023-05-09T05:56:44.466Z,39.08
2023-05-09T06:01:48.024Z,39.66
2023-05-09T06:06:52.988Z,39.81
2023-05-09T06:11:56.444Z,39.15
2023-05-09T06:17:00.269Z,40.55
2023-05-09T06:22:05.239Z,41.58
2023-05-09T06:27:08.816Z,40.20
2023-05-09T06:32:12.311Z,33.51
2023-05-09T06:37:17.377Z,28.27
2023-05-09T06:42:20.899Z,25.14
2023-05-09T06:47:24.092Z,22.94
2023-05-09T06:52:29.017Z,21.83
2023-05-09T06:57:32.636Z,20.39
2023-05-09T07:02:36.136Z,19.45
2023-05-09T07:07:41.169Z,19.18
2023-05-09T07:12:44.684Z,18.83
2023-05-09T07:17:48.173Z,18.69
2023-05-09T07:22:53.203Z,18.50
2023-05-09T07:27:56.806Z,18.31
2023-05-09T07:33:01.610Z,18.26
2023-05-09T07:38:06.683Z,18.22
2023-05-09T07:43:10.148Z,17.98
2023-05-09T07:48:13.699Z,17.68
2023-05-09T07:53:18.738Z,17.41
2023-05-09T07:58:22.226Z,17.28
2023-05-09T08:03:26.097Z,17.16
2023-05-09T08:08:31.236Z,17.33
2023-05-09T08:13:34.777Z,17.38
2023-05-09T08:18:38.311Z,17.66
2023-05-09T08:23:43.510Z,17.76
2023-05-09T08:28:47.027Z,18.51
2023-05-09T08:33:50.568Z,19.57
2023-05-09T08:38:55.668Z,20.12
2023-05-09T08:43:59.447Z,20.27
2023-05-09T08:49:03.343Z,19.20
2023-05-09T08:54:08.601Z,18.34
2023-05-09T08:59:12.241Z,18.61
2023-05-09T09:04:15.987Z,18.91
2023-05-09T09:09:21.712Z,19.18
2023-05-09T09:14:26.958Z,19.23
2023-05-09T09:19:32.699Z,18.74
2023-05-09T09:24:37.857Z,18.00
2023-05-09T09:29:42.161Z,18.40
2023-05-09T09:34:45.838Z,18.66
2023-05-09T09:39:57.094Z,19.22
2023-05-09T09:45:04.403Z,19.42
2023-05-09T09:50:13.469Z,19.40
2023-05-09T09:55:18.808Z,19.94
2023-05-09T10:00:28.597Z,20.34
2023-05-09T10:05:34.581Z,20.41
2023-05-09T10:10:39.597Z,20.37
2023-05-09T10:15:53.049Z,19.93
2023-05-09T10:21:01.103Z,19.78
2023-05-09T10:26:17.467Z,19.71
2023-05-09T10:31:24.467Z,19.04
2023-05-09T10:36:28.810Z,18.55
2023-05-09T10:41:34.356Z,18.15
2023-05-09T10:46:38.856Z,18.24
2023-05-09T10:51:42.139Z,18.39
2023-05-09T10:56:47.058Z,18.48
2023-05-09T11:02:01.144Z,18.87
2023-05-09T11:07:04.833Z,19.07
2023-05-09T11:12:15.192Z,18.61
2023-05-09T11:17:31.848Z,18.18
2023-05-09T11:22:41.532Z,18.33
2023-05-09T11:27:48.711Z,18.06
2023-05-09T11:32:53.904Z,18.38
2023-05-09T11:38:02.283Z,18.12
2023-05-09T11:43:09.478Z,18.15
2023-05-09T11:48:12.946Z,17.86
2023-05-09T11:53:16.416Z,17.72
2023-05-09T11:58:21.684Z,17.66
2023-05-09T12:03:25.343Z,17.66
2023-05-09T12:08:30.396Z,17.40
2023-05-09T12:13:36.276Z,16.99
2023-05-09T12:18:39.761Z,16.73
2023-05-09T12:23:43.646Z,16.58
2023-05-09T12:28:49.926Z,16.25
2023-05-09T12:33:53.554Z,16.00
2023-05-09T12:38:57.532Z,15.73
2023-05-09T12:44:02.554Z,15.26
2023-05-09T12:49:06.179Z,15.05
2023-05-09T12:54:11.149Z,15.10
2023-05-09T12:59:22.502Z,15.34
2023-05-09T13:04:27.787Z,15.19
2023-05-09T13:09:31.667Z,15.47
2023-05-09T13:14:36.655Z,15.30
2023-05-09T13:19:40.192Z,15.23
2023-05-09T13:24:43.818Z,15.67
2023-05-09T13:29:48.705Z,16.04
2023-05-09T13:34:52.529Z,15.82
2023-05-09T13:39:56.416Z,15.80
2023-05-09T13:45:01.491Z,16.04
2023-05-09T13:50:09.585Z,16.18
2023-05-09T13:55:13.111Z,16.37
2023-05-09T14:00:18.505Z,16.66
2023-05-09T14:05:22.825Z,16.80
2023-05-09T14:10:27.321Z,17.05
2023-05-09T14:15:31.910Z,17.21
2023-05-09T14:20:37.431Z,17.24
2023-05-09T14:25:41.131Z,17.26
2023-05-09T14:30:46.168Z,17.21
2023-05-09T14:35:49.929Z,16.92
2023-05-09T14:40:53.485Z,16.45
2023-05-09T14:45:58.608Z,16.28
2023-05-09T14:51:02.193Z,15.97
2023-05-09T14:56:06.953Z,15.88
2023-05-09T15:01:11.918Z,15.62
2023-05-09T15:06:15.607Z,15.62
2023-05-09T15:11:19.122Z,15.63
2023-05-09T15:16:24.204Z,15.49
2023-05-09T15:21:29.113Z,15.43
2023-05-09T15:26:32.781Z,15.32
2023-05-09T15:31:38.120Z,15.28
2023-05-09T15:36:41.662Z,15.14
2023-05-09T15:41:45.349Z,15.12
2023-05-09T15:46:50.442Z,14.86
2023-05-09T15:51:53.950Z,14.51
2023-05-09T15:56:57.593Z,14.29
2023-05-09T16:02:02.557Z,14.10
2023-05-09T16:07:06.254Z,13.98
2023-05-09T16:12:09.777Z,13.84
2023-05-09T16:17:14.824Z,13.54
2023-05-09T16:22:18.372Z,13.44
2023-05-09T16:27:22.005Z,13.29
2023-05-09T16:32:26.994Z,13.12
2023-05-09T16:37:30.509Z,13.04
2023-05-09T16:42:34.226Z,12.81
2023-05-09T16:47:39.303Z,12.73
2023-05-09T16:52:42.854Z,12.47
2023-05-09T16:57:46.359Z,12.30
2023-05-09T17:02:51.483Z,12.19
2023-05-09T17:07:55.082Z,12.04
2023-05-09T17:12:58.722Z,11.86
2023-05-09T17:18:03.911Z,11.65
2023-05-09T17:23:07.527Z,11.69
2023-05-09T17:28:11.195Z,11.69
2023-05-09T17:33:18.852Z,11.60
2023-05-09T17:38:22.384Z,11.43
2023-05-09T17:43:27.946Z,11.36
2023-05-09T17:48:33.007Z,11.31
2023-05-09T17:53:36.715Z,11.34
2023-05-09T17:58:40.329Z,11.34
2023-05-09T18:03:45.455Z,11.31
2023-05-09T18:08:49.289Z,11.20
2023-05-09T18:13:52.985Z,10.97
2023-05-09T18:18:59.524Z,11.01
2023-05-09T18:24:03.197Z,10.99
2023-05-09T18:29:06.889Z,10.89
2023-05-09T18:34:12.422Z,10.78
2023-05-09T18:39:16.200Z,10.65
2023-05-09T18:44:19.837Z,10.38
2023-05-09T18:49:26.396Z,10.44
2023-05-09T18:54:30.154Z,10.23
2023-05-09T18:59:33.767Z,9.91
2023-05-09T19:04:38.880Z,9.72
2023-05-09T19:09:42.538Z,9.53
2023-05-09T19:14:46.198Z,9.42
2023-05-09T19:19:51.218Z,9.44
2023-05-09T19:24:54.859Z,9.36
2023-05-09T19:29:59.531Z,9.29
2023-05-09T19:35:04.635Z,9.36
2023-05-09T19:40:09.315Z,9.36
2023-05-09T19:45:13.856Z,9.30
2023-05-09T19:50:19.872Z,9.24
2023-05-09T19:55:23.670Z,9.21
2023-05-09T20:00:27.801Z,9.17
2023-05-09T20:05:32.885Z,9.17
2023-05-09T20:10:36.772Z,9.02
2023-05-09T20:15:40.451Z,8.79
2023-05-09T20:20:45.818Z,8.86
2023-05-09T20:25:49.331Z,8.88
2023-05-09T20:30:52.920Z,8.87
2023-05-09T20:35:57.874Z,8.94
2023-05-09T20:41:01.790Z,8.69
2023-05-09T20:46:05.476Z,8.88
2023-05-09T20:51:10.766Z,8.96
2023-05-09T20:56:14.406Z,8.95
2023-05-09T21:01:17.949Z,8.87
2023-05-09T21:06:22.928Z,8.94
2023-05-09T21:11:26.118Z,9.01
2023-05-09T21:16:29.763Z,8.89
2023-05-09T21:21:34.781Z,8.50
2023-05-09T21:26:38.008Z,8.25
2023-05-09T21:31:41.508Z,8.39
2023-05-09T21:36:46.370Z,8.52
2023-05-09T21:41:49.598Z,8.63
2023-05-09T21:46:53.170Z,8.64
2023-05-09T21:51:58.215Z,8.74
2023-05-09T21:57:01.822Z,8.63
2023-05-09T22:02:05.538Z,8.78
2023-05-09T22:07:10.518Z,8.84
2023-05-09T22:12:13.699Z,8.87
2023-05-09T22:17:17.279Z,8.79
2023-05-09T22:22:22.696Z,8.82
2023-05-09T22:27:26.218Z,8.84
2023-05-09T22:32:29.753Z,8.85
2023-05-09T22:37:34.634Z,8.78
2023-05-09T22:42:37.879Z,8.73
2023-05-09T22:47:41.419Z,8.41
2023-05-09T22:52:46.324Z,8.31
2023-05-09T22:57:49.567Z,8.37
2023-05-09T23:02:53.108Z,8.39
2023-05-09T23:07:59.230Z,8.46
2023-05-09T23:13:02.454Z,8.47
2023-05-09T23:18:06.001Z,8.24
2023-05-09T23:23:10.887Z,8.07
2023-05-09T23:28:14.052Z,8.15
2023-05-09T23:33:17.672Z,8.23
2023-05-09T23:38:22.726Z,8.35
2023-05-09T23:43:26.262Z,8.28
2023-05-09T23:48:29.706Z,8.06
2023-05-09T23:53:35.345Z,8.02
2023-05-09T23:58:38.967Z,8.06
